Terminal Aerodrome Forecast
Issued by NWS

Home | Current Version | Previous Version | Text Only | Print | Product List | Glossary On
Versions: 1 2 3 4 5 6 7 8 9 10 11 12 13 14 15 16
000
FTAK31 PANC 240544
TAFAAQ
TAF
PAAQ 240544Z 2406/2506 15015G23KT P6SM BKN090
     FM240900 13020G32KT P6SM BKN070
     FM241800 13030G45KT P6SM BKN060
     FM242200 14035G50KT P6SM -SHRA SCT020 BKN040
     FM250300 14012G22KT 5SM -SHRA BR SCT010 BKN025=

USA.gov is the U.S. government's official web portal to all federal, state and local government web resources and services.